OTZ - Ralph Wien Meml

Pirep is a free, collaborative database of all public and private airports located within the United States. All pilots are welcome to contribute, edit, and improve any airport they have local knowledge about, no registration required.
Are you familiar with this airport? Help out other pilots by adding your local knowledge.
Uploaded photos will be licensed under a CC BY-SA 4.0 license. Please only upload photos you have the rights to use.
Tags
Public
Undocu­mented
METAR / TAF
Webcam
Edit Tags
Food
Camping
Lodging
Car Rental
Bicycles
Swimming
Golfing
Fishing
Hot Springs
Museum
Flying Clubs
Airpark
Upcoming Events
No upcoming events. Is anything happening here soon?
*
*
*

Where exactly on/near the airport is this event taking place?

Is there a webpage with more information for this event?

Who should be contacted for more information?

What is this event all about?

Repeat every
Description
Transient Parking
Fuel Location
Landing & Tie-down Fees
Crew Car Availability
Flying Clubs
WiFi Access
Airport Statistics
Location: Kotzebue, AK
Elevation: 15ft
Sectional: Nome
Activation date: Sep 1947
Fuel: 100, A (prices)
Runway 09/27: 6,300ft
Runway 18/36: 3,876ft
Access: Open to the public
Current Weather — VFR
  • Weather data is strictly informational and not for flight planning purposes.
  • METAR
    2024-05-26 02:53:00 AKDT
    Ceiling Wind Temperature Dewpoint Weather Visbility
    9,500ft 310° @ 13kt 30°F 28°F N/A 10SM
    Clouds: Broken @ 9,500ft
    Raw: PAOT 261053Z AUTO 31013KT 10SM BKN095 M01/M02 A2998 RMK AO2 SLP152 T10061017 TSNO
  • TAF
    2024-05-26 02:00:00 AKDT – 2024-05-26 08:00:00 AKDT
    Ceiling Wind Weather Visbility
    Sky clear 340° @ 11kt N/A 6SM
    Clouds: @ ft
    Raw: PAOT 260959Z 2610/2706 34011KT P6SM SKC FM261600 34012G22KT P6SM BKN060 BKN080
  • TAF
    2024-05-26 08:00:00 AKDT – 2024-05-26 22:00:00 AKDT
    Ceiling Wind Weather Visbility
    6,000ft 340° @ 12kt, gusts 22kt N/A 6SM
    Clouds: Broken @ 6,000ft, Broken @ 8,000ft
    Raw: PAOT 260959Z 2610/2706 34011KT P6SM SKC FM261600 34012G22KT P6SM BKN060 BKN080
Click/tap to add an annotation marker to the map
Direct links to live image URLs will be displayed inline on this page. URLs to separate webpages will be linked to.
URL:
Direct links to live image URLs will be displayed inline on this page. URLs to separate webpages will be linked to.
URL:
Remarks
  • Review of road location /pending.
  • Clsd to acr ops more than 30 pax seats exc ppr in writing - amgr box 55 kotzebue ak 99752.
  • Arpt svcs avbl 0700-2000; aft hr - amgr.
  • Prkg area unlgtd. tsnt prkg - flt svc.
  • Twys & ramps have nmrs dips & rough sfcs.
  • Sand lrgr gradation than faa rcmdd/see ac150/5200-30.
  • Nmrs 330 ft wind turbine twrs 3.5 mi se.
  • Wx camera avbl on internet at https://weathercams.faa.gov
Comments
Leave a comment What was your experience like at this airport?